Time;durP1;ratioP1;P1;durP2;ratioP2;P2;SDS_P1;SDS_P2;PMS_P1;PMS_P2;Temp;Humidity;BMP_temperature;BMP_pressure;BME280_temperature;BME280_humidity;BME280_pressure;Samples;Min_cycle;Max_cycle;Signal;HPM_P1;HPM_P2
2022/07/25 00:00:20;;;;;;;4.28;2.17;;;;;;;29.37;50.13;101149.42;1698594;84;21034;-49
2022/07/25 00:02:49;;;;;;;4.33;2.15;;;;;;;29.38;49.74;101147.11;1699783;83;21029;-51
2022/07/25 00:05:17;;;;;;;3.83;2.10;;;;;;;29.37;49.49;101150.77;1699694;84;21129;-55
2022/07/25 00:07:43;;;;;;;3.95;2.20;;;;;;;29.36;49.33;101146.41;1736692;81;21522;-52
2022/07/25 00:10:10;;;;;;;3.12;1.90;;;;;;;29.34;49.26;101143.02;1699025;84;21026;-49
2022/07/25 00:12:38;;;;;;;3.95;2.22;;;;;;;29.31;49.14;101143.30;1697591;83;21062;-52
2022/07/25 00:15:06;;;;;;;3.50;2.50;;;;;;;29.29;48.95;101141.26;1688624;83;21074;-49
2022/07/25 00:17:34;;;;;;;2.95;2.50;;;;;;;29.27;48.83;101141.89;1699287;83;21042;-55
2022/07/25 00:20:04;;;;;;;2.40;1.75;;;;;;;29.25;48.72;101143.88;1700005;83;21054;-52
2022/07/25 00:22:31;;;;;;;2.35;2.15;;;;;;;29.22;48.64;101146.86;1700982;84;20979;-51
2022/07/25 00:24:59;;;;;;;2.60;1.90;;;;;;;29.22;48.65;101146.86;1731950;81;21042;-49
2022/07/25 00:27:26;;;;;;;3.90;2.50;;;;;;;29.20;48.60;101144.81;1733220;81;21047;-52
2022/07/25 00:29:53;;;;;;;4.42;2.05;;;;;;;29.19;48.53;101141.77;1733234;81;21054;-50
2022/07/25 00:32:20;;;;;;;3.30;2.20;;;;;;;29.18;48.33;101144.94;1733481;81;21007;-51
2022/07/25 00:34:47;;;;;;;5.75;3.30;;;;;;;29.16;48.22;101150.94;1735533;81;21105;-49
2022/07/25 00:37:13;;;;;;;5.25;2.70;;;;;;;29.15;48.06;101153.77;1733405;81;20991;-51
2022/07/25 00:39:40;;;;;;;3.17;2.33;;;;;;;29.11;47.80;101150.50;1735329;81;21035;-52
2022/07/25 00:42:07;;;;;;;3.15;2.20;;;;;;;29.09;47.65;101150.28;1736070;82;21043;-49
2022/07/25 00:44:34;;;;;;;2.98;2.22;;;;;;;29.05;47.70;101152.41;1736589;81;21018;-50
2022/07/25 00:47:01;;;;;;;4.55;2.50;;;;;;;29.03;47.84;101156.22;1734970;81;21091;-52
2022/07/25 00:49:28;;;;;;;8.28;2.80;;;;;;;28.98;48.23;101152.13;1733360;81;21510;-51
2022/07/25 00:51:55;;;;;;;7.95;3.37;;;;;;;28.93;49.25;101152.21;1733216;81;20999;-49
2022/07/25 00:54:22;;;;;;;9.20;4.25;;;;;;;28.85;49.67;101159.59;1733084;81;21593;-50
2022/07/25 00:56:49;;;;;;;11.90;4.45;;;;;;;28.78;49.45;101156.28;1733336;81;21063;-51
2022/07/25 00:59:17;;;;;;;8.78;4.55;;;;;;;28.70;49.47;101158.34;1734461;81;21566;-53
2022/07/25 01:01:46;;;;;;;12.23;4.95;;;;;;;28.62;49.54;101156.84;1736278;81;21011;-48
2022/07/25 01:04:13;;;;;;;10.60;4.42;;;;;;;28.52;49.89;101159.95;1700440;84;21145;-53
2022/07/25 01:06:39;;;;;;;10.55;5.05;;;;;;;28.45;50.37;101157.48;1698831;84;21104;-51
2022/07/25 01:09:06;;;;;;;9.43;4.55;;;;;;;28.40;51.35;101165.06;1699245;84;20995;-49
2022/07/25 01:11:33;;;;;;;8.08;5.33;;;;;;;28.33;51.39;101173.31;1699661;83;21057;-51
2022/07/25 01:14:00;;;;;;;7.90;5.00;;;;;;;28.26;51.98;101170.81;1710185;83;21088;-51
2022/07/25 01:16:26;;;;;;;10.03;4.60;;;;;;;28.17;52.28;101177.00;1699388;84;21057;-52
2022/07/25 01:18:53;;;;;;;11.60;5.42;;;;;;;28.10;52.60;101187.39;1698344;84;21065;-51
2022/07/25 01:21:19;;;;;;;6.97;4.55;;;;;;;28.02;53.14;101194.39;1701721;84;21034;-49
2022/07/25 01:23:46;;;;;;;9.85;4.72;;;;;;;27.90;53.45;101198.92;1734027;81;21026;-49
2022/07/25 01:26:13;;;;;;;6.72;4.80;;;;;;;27.80;53.64;101202.56;1731609;81;21023;-51
2022/07/25 01:28:39;;;;;;;7.37;4.78;;;;;;;27.71;53.57;101206.02;1731737;81;21067;-51
2022/07/25 01:31:06;;;;;;;8.50;5.30;;;;;;;27.64;53.56;101212.86;1731584;81;21560;-51
2022/07/25 01:33:33;;;;;;;6.42;4.80;;;;;;;27.59;53.41;101223.11;1733852;81;21062;-51
2022/07/25 01:36:01;;;;;;;10.68;6.12;;;;;;;27.52;53.49;101213.91;1694803;84;21011;-50
2022/07/25 01:38:28;;;;;;;10.78;6.12;;;;;;;27.49;54.46;101208.84;1700460;83;21058;-52
2022/07/25 01:40:55;;;;;;;14.03;5.53;;;;;;;27.45;54.80;101203.39;1700580;84;21030;-50
2022/07/25 01:43:21;;;;;;;8.20;4.95;;;;;;;27.37;55.25;101203.54;1730322;82;21074;-50
2022/07/25 01:45:48;;;;;;;11.75;5.00;;;;;;;27.30;55.24;101194.81;1722500;81;21035;-52
2022/07/25 01:48:17;;;;;;;8.63;4.83;;;;;;;27.20;55.64;101200.06;1733654;81;21026;-50
2022/07/25 01:50:44;;;;;;;6.35;5.05;;;;;;;27.14;55.99;101191.23;1700548;84;21498;-51
2022/07/25 01:53:10;;;;;;;9.25;5.05;;;;;;;27.09;56.08;101191.27;1700632;84;21003;-52
2022/07/25 01:55:37;;;;;;;9.13;4.70;;;;;;;27.06;56.32;101195.03;1704098;83;21527;-52
2022/07/25 01:58:04;;;;;;;7.83;4.75;;;;;;;27.03;56.51;101191.30;1699552;83;21041;-53
2022/07/25 02:00:31;;;;;;;6.37;4.83;;;;;;;27.01;56.61;101193.25;1700373;83;21036;-50
2022/07/25 02:05:42;;;;;;;11.38;5.22;;;;;;;26.96;56.80;101198.11;1734705;81;21054;-52
2022/07/25 02:08:09;;;;;;;10.60;5.15;;;;;;;26.98;56.97;101200.17;1734621;81;21027;-52
2022/07/25 02:10:36;;;;;;;7.22;4.67;;;;;;;26.98;57.00;101198.83;1698883;83;21479;-53
2022/07/25 02:13:03;;;;;;;5.92;4.78;;;;;;;27.01;57.20;101199.93;1697732;84;21525;-53
2022/07/25 02:15:29;;;;;;;6.67;4.70;;;;;;;27.03;57.09;101197.98;1692920;84;21034;-49
2022/07/25 02:17:56;;;;;;;9.85;5.40;;;;;;;27.06;57.07;101190.20;1734505;81;21544;-50
2022/07/25 02:20:23;;;;;;;7.28;4.75;;;;;;;27.08;56.98;101190.41;1734767;81;21031;-52
2022/07/25 02:22:50;;;;;;;7.40;4.75;;;;;;;27.10;56.49;101192.47;1732588;81;21705;-50
2022/07/25 02:25:17;;;;;;;7.95;5.15;;;;;;;27.11;56.22;101188.84;1733230;81;21102;-56
2022/07/25 02:27:44;;;;;;;7.45;5.40;;;;;;;27.11;56.39;101191.51;1733937;82;21007;-51
2022/07/25 02:30:12;;;;;;;5.50;4.95;;;;;;;27.12;56.42;101191.84;1700804;84;21495;-51
2022/07/25 02:32:39;;;;;;;5.87;5.00;;;;;;;27.14;56.26;101195.75;1701152;84;21498;-50
2022/07/25 02:35:08;;;;;;;9.45;4.62;;;;;;;27.13;56.08;101200.23;1732575;81;21062;-52
2022/07/25 02:37:35;;;;;;;8.40;4.70;;;;;;;27.11;56.13;101198.19;1718672;82;21550;-49
2022/07/25 02:40:03;;;;;;;5.15;4.65;;;;;;;27.08;56.10;101200.27;1734721;81;21007;-49
2022/07/25 02:42:30;;;;;;;5.20;4.70;;;;;;;27.03;56.02;101203.32;1734792;81;20983;-51
2022/07/25 02:44:57;;;;;;;5.53;4.70;;;;;;;26.98;56.18;101206.84;1719351;81;21094;-49
2022/07/25 02:47:24;;;;;;;5.55;4.97;;;;;;;26.96;56.45;101203.45;1732894;81;21046;-52
2022/07/25 02:49:51;;;;;;;7.15;4.55;;;;;;;26.95;56.28;101199.11;1733349;82;21563;-49
2022/07/25 02:52:17;;;;;;;7.33;4.60;;;;;;;26.96;56.55;101211.47;1700837;84;21495;-53
2022/07/25 02:54:44;;;;;;;6.67;5.15;;;;;;;26.97;56.63;101213.18;1700796;84;21042;-50
2022/07/25 02:57:11;;;;;;;6.62;5.10;;;;;;;26.96;56.40;101212.80;1698660;84;21510;-51
2022/07/25 02:59:37;;;;;;;9.03;4.75;;;;;;;26.96;56.53;101215.47;1697731;84;21007;-51
2022/07/25 03:02:04;;;;;;;6.20;4.85;;;;;;;26.97;56.77;101221.19;1697858;84;21519;-51
2022/07/25 03:04:32;;;;;;;7.05;5.40;;;;;;;26.98;56.89;101217.53;1697375;84;21081;-56
2022/07/25 03:06:59;;;;;;;6.55;4.95;;;;;;;27.01;57.10;101218.62;1731984;81;21035;-51
2022/07/25 03:09:26;;;;;;;7.70;5.10;;;;;;;27.04;57.01;101218.36;1694174;84;21023;-49
2022/07/25 03:11:55;;;;;;;7.15;4.78;;;;;;;27.07;56.82;101215.92;1735291;81;21015;-50
2022/07/25 03:14:22;;;;;;;7.80;4.72;;;;;;;27.11;56.74;101218.22;1731120;82;21128;-50
2022/07/25 03:16:49;;;;;;;6.58;5.62;;;;;;;27.15;56.52;101216.98;1734560;81;21058;-51
2022/07/25 03:19:16;;;;;;;5.22;4.60;;;;;;;27.21;56.27;101206.27;1700270;84;20987;-54
2022/07/25 03:21:44;;;;;;;5.45;4.95;;;;;;;27.22;56.30;101207.47;1690621;84;21018;-52
2022/07/25 03:24:11;;;;;;;5.35;4.85;;;;;;;27.22;56.43;101208.80;1731547;81;21027;-51
2022/07/25 03:26:38;;;;;;;6.50;5.05;;;;;;;27.24;56.19;101208.18;1733597;81;20987;-53
2022/07/25 03:29:05;;;;;;;6.65;5.00;;;;;;;27.27;55.79;101213.28;1700610;84;21014;-51
2022/07/25 03:31:31;;;;;;;5.72;5.08;;;;;;;27.26;55.39;101206.26;1733970;81;21496;-50
2022/07/25 03:33:58;;;;;;;5.72;4.75;;;;;;;27.27;55.09;101208.42;1731714;81;22154;-53
2022/07/25 03:36:25;;;;;;;10.35;5.28;;;;;;;27.29;54.58;101213.14;1733621;82;21035;-53
2022/07/25 03:38:52;;;;;;;5.28;4.87;;;;;;;27.28;54.31;101215.00;1721997;81;21003;-53
2022/07/25 03:41:19;;;;;;;6.28;4.78;;;;;;;27.29;54.56;101218.02;1734258;81;21066;-52
2022/07/25 03:43:46;;;;;;;8.10;4.95;;;;;;;27.30;54.30;101226.40;1696448;84;21042;-48
2022/07/25 03:46:13;;;;;;;5.85;5.35;;;;;;;27.29;54.06;101227.36;1693636;84;21066;-51
2022/07/25 03:48:40;;;;;;;8.55;5.05;;;;;;;27.30;54.09;101229.08;1697810;83;21090;-52
2022/07/25 03:51:07;;;;;;;7.65;5.00;;;;;;;27.31;53.78;101232.09;1697689;84;21475;-49
2022/07/25 03:54:00;;;;;;;5.05;4.53;;;;;;;27.32;53.85;101239.14;1699660;84;21034;-51
2022/07/25 03:56:04;;;;;;;5.30;4.75;;;;;;;27.34;53.85;101238.56;1722853;81;20980;-51
2022/07/25 03:58:31;;;;;;;5.12;4.53;;;;;;;27.35;53.66;101238.05;1735733;81;21062;-48
2022/07/25 04:01:00;;;;;;;6.87;4.62;;;;;;;27.35;53.40;101234.89;1698099;84;21074;-53
2022/07/25 04:03:27;;;;;;;7.30;4.50;;;;;;;27.35;53.14;101234.89;1699654;84;21030;-49
2022/07/25 04:05:54;;;;;;;5.53;4.62;;;;;;;27.34;52.46;101230.55;1698557;83;21058;-49
2022/07/25 04:08:20;;;;;;;6.00;4.60;;;;;;;27.33;52.33;101244.83;1701473;83;21053;-49
2022/07/25 04:10:47;;;;;;;4.87;4.10;;;;;;;27.34;52.56;101248.39;1734904;81;21026;-49
2022/07/25 04:13:14;;;;;;;5.17;4.15;;;;;;;27.35;52.25;101248.73;1697877;84;21538;-52
2022/07/25 04:15:40;;;;;;;5.65;4.15;;;;;;;27.35;52.47;101242.91;1690217;84;21085;-48
2022/07/25 04:18:07;;;;;;;4.90;4.00;;;;;;;27.37;52.68;101250.79;1698157;82;21045;-52
2022/07/25 04:20:36;;;;;;;6.67;3.77;;;;;;;27.37;52.30;101243.63;1699334;84;21039;-56
2022/07/25 04:23:02;;;;;;;4.60;4.08;;;;;;;27.38;51.88;101252.02;1731508;82;20975;-52
2022/07/25 04:25:30;;;;;;;5.55;4.53;;;;;;;27.39;51.91;101249.70;1735958;81;21562;-51
2022/07/25 04:27:57;;;;;;;4.40;4.00;;;;;;;27.42;52.09;101249.08;1734431;81;21023;-50
2022/07/25 04:30:24;;;;;;;6.22;4.00;;;;;;;27.43;51.88;101260.14;1723188;81;21020;-53
2022/07/25 04:32:51;;;;;;;4.55;3.83;;;;;;;27.44;52.17;101257.81;1733320;81;21066;-49
2022/07/25 04:35:19;;;;;;;4.40;4.10;;;;;;;27.45;51.99;101258.19;1700791;82;21046;-51
2022/07/25 04:37:47;;;;;;;4.83;4.37;;;;;;;27.45;52.09;101262.20;1697089;84;21613;-52
2022/07/25 04:40:13;;;;;;;4.62;4.22;;;;;;;27.45;51.73;101261.69;1730233;82;20966;-52
2022/07/25 04:42:40;;;;;;;5.50;4.62;;;;;;;27.45;52.08;101259.52;1737257;81;21011;-50
2022/07/25 04:45:09;;;;;;;5.30;4.58;;;;;;;27.45;52.19;101271.04;1721953;81;21554;-53
2022/07/25 04:47:36;;;;;;;8.38;4.62;;;;;;;27.45;52.22;101264.36;1734281;81;21027;-49
2022/07/25 04:50:06;;;;;;;4.60;4.20;;;;;;;27.46;52.25;101271.41;1731574;81;21035;-54
2022/07/25 04:52:33;;;;;;;4.70;4.30;;;;;;;27.45;51.86;101272.38;1733245;81;21035;-52
2022/07/25 04:55:00;;;;;;;6.47;4.30;;;;;;;27.45;52.08;101274.23;1733875;82;21034;-49
2022/07/25 04:57:27;;;;;;;6.92;4.58;;;;;;;27.45;52.34;101271.04;1700664;84;21022;-50
2022/07/25 04:59:53;;;;;;;5.08;4.58;;;;;;;27.46;52.33;101275.91;1700270;84;21069;-51
2022/07/25 05:02:20;;;;;;;6.03;4.58;;;;;;;27.47;52.55;101278.44;1697996;83;21503;-56
2022/07/25 05:04:47;;;;;;;6.22;4.67;;;;;;;27.48;52.58;101284.64;1697562;83;21093;-49
2022/07/25 05:07:13;;;;;;;5.95;4.95;;;;;;;27.49;52.50;101285.02;1697687;83;21522;-51
2022/07/25 05:09:41;;;;;;;5.12;4.60;;;;;;;27.50;52.47;101292.05;1731490;81;21078;-50
2022/07/25 05:12:08;;;;;;;5.60;4.65;;;;;;;27.50;52.48;101293.38;1732420;81;21471;-50
2022/07/25 05:14:35;;;;;;;6.30;5.20;;;;;;;27.50;52.51;101293.38;1730265;82;21527;-48
2022/07/25 05:17:03;;;;;;;7.22;5.20;;;;;;;27.51;52.50;101292.42;1732520;81;21067;-52
2022/07/25 05:19:30;;;;;;;7.25;5.20;;;;;;;27.51;52.58;101289.75;1731680;81;21015;-50
2022/07/25 05:21:57;;;;;;;7.72;5.60;;;;;;;27.52;52.56;101302.13;1722542;81;21031;-49
2022/07/25 05:24:24;;;;;;;6.15;4.95;;;;;;;27.53;52.55;101297.15;1700671;84;21002;-49
2022/07/25 05:26:51;;;;;;;7.92;5.20;;;;;;;27.55;52.42;101301.87;1697245;84;21499;-50
2022/07/25 05:29:17;;;;;;;6.30;5.60;;;;;;;27.58;52.52;101296.25;1697455;83;21018;-53
2022/07/25 05:31:45;;;;;;;7.10;5.15;;;;;;;27.59;52.48;101297.97;1731281;81;21507;-52
2022/07/25 05:34:12;;;;;;;8.38;5.25;;;;;;;27.64;52.58;101305.09;1731392;81;21047;-50
2022/07/25 05:36:40;;;;;;;6.55;5.37;;;;;;;27.67;52.26;101304.85;1732200;81;21031;-53
2022/07/25 05:39:06;;;;;;;5.72;5.12;;;;;;;27.68;52.11;101302.04;1734546;81;21011;-52
2022/07/25 05:41:33;;;;;;;6.62;5.15;;;;;;;27.70;52.43;101297.41;1734763;81;21027;-52
2022/07/25 05:44:00;;;;;;;5.97;5.40;;;;;;;27.73;52.44;101305.67;1697026;84;21010;-52
2022/07/25 05:46:27;;;;;;;6.33;5.05;;;;;;;27.73;52.35;101305.67;1692369;84;21066;-50
2022/07/25 05:48:53;;;;;;;9.98;5.97;;;;;;;27.72;52.35;101310.16;1731842;81;21027;-52
2022/07/25 05:51:20;;;;;;;7.67;5.67;;;;;;;27.75;52.41;101303.71;1733205;81;21063;-48
2022/07/25 05:53:47;;;;;;;7.70;5.92;;;;;;;27.78;52.49;101299.45;1738047;80;21027;-50
2022/07/25 05:56:15;;;;;;;6.00;5.40;;;;;;;27.80;52.52;101298.84;1759413;80;21015;-49
2022/07/25 05:58:43;;;;;;;8.98;5.42;;;;;;;27.88;52.40;101293.68;1755686;80;21042;-51
2022/07/25 06:01:13;;;;;;;6.10;5.50;;;;;;;27.96;52.34;101293.91;1734708;80;21506;-55
2022/07/25 06:03:40;;;;;;;6.50;5.90;;;;;;;28.07;52.07;101296.48;1740219;81;21003;-54
2022/07/25 06:06:07;;;;;;;9.70;5.78;;;;;;;28.21;51.97;101292.15;1738854;80;21031;-51
2022/07/25 06:08:35;;;;;;;5.45;5.00;;;;;;;28.36;51.97;101284.09;1741260;80;21030;-52
2022/07/25 06:11:04;;;;;;;7.55;5.67;;;;;;;28.53;51.54;101276.78;1732112;81;21546;-52
2022/07/25 06:13:32;;;;;;;6.05;5.33;;;;;;;28.72;51.24;101279.56;1744966;80;21539;-50
2022/07/25 06:16:00;;;;;;;6.50;6.00;;;;;;;28.90;50.78;101273.03;1743791;80;21017;-49
2022/07/25 06:18:29;;;;;;;8.38;5.95;;;;;;;29.08;50.52;101267.86;1700007;84;20990;-54
2022/07/25 06:20:55;;;;;;;7.00;5.92;;;;;;;29.24;50.34;101269.52;1697873;84;21054;-50
2022/07/25 06:23:22;;;;;;;6.80;5.87;;;;;;;29.38;50.21;101263.73;1703004;84;21070;-52
2022/07/25 06:25:49;;;;;;;6.35;5.85;;;;;;;29.47;49.73;101257.01;1735165;82;21058;-53
2022/07/25 06:28:16;;;;;;;6.95;6.35;;;;;;;29.52;49.57;101259.27;1700791;84;20995;-49
2022/07/25 06:30:43;;;;;;;7.62;6.42;;;;;;;29.55;49.32;101260.34;1699927;82;21078;-53
2022/07/25 06:33:11;;;;;;;6.97;6.20;;;;;;;29.51;49.11;101257.59;1697689;84;21073;-53
2022/07/25 06:35:39;;;;;;;6.85;6.25;;;;;;;29.48;49.52;101264.56;1698018;84;21022;-49
2022/07/25 06:38:06;;;;;;;7.12;6.40;;;;;;;29.45;49.41;101262.19;1689382;84;21531;-48
2022/07/25 06:40:34;;;;;;;7.45;6.37;;;;;;;29.43;49.35;101261.48;1700830;84;21069;-48
2022/07/25 06:43:01;;;;;;;7.65;5.97;;;;;;;29.43;49.41;101264.98;1692100;84;21049;-51
2022/07/25 06:45:28;;;;;;;8.70;6.37;;;;;;;29.45;49.38;101260.84;1696988;84;21022;-50
2022/07/25 06:47:56;;;;;;;6.60;6.00;;;;;;;29.48;49.18;101256.03;1700781;84;21069;-49
2022/07/25 06:50:23;;;;;;;6.83;6.22;;;;;;;29.50;49.49;101266.61;1701224;84;21558;-52
2022/07/25 06:52:50;;;;;;;6.78;6.12;;;;;;;29.51;49.71;101265.64;1698689;84;21057;-53
2022/07/25 06:55:17;;;;;;;6.55;6.05;;;;;;;29.53;49.96;101266.34;1699624;84;21073;-50
2022/07/25 06:57:44;;;;;;;6.40;5.80;;;;;;;29.57;49.61;101269.09;1733747;82;21035;-52
2022/07/25 07:00:12;;;;;;;6.30;5.70;;;;;;;29.58;49.66;101269.42;1701300;84;21467;-50
2022/07/25 07:02:57;;;;;;;6.65;6.15;;;;;;;29.59;49.98;101265.77;1701063;84;20998;-52
2022/07/25 07:05:26;;;;;;;6.70;6.20;;;;;;;29.61;49.63;101266.47;1734486;81;21055;-51
2022/07/25 07:07:53;;;;;;;6.25;5.75;;;;;;;29.65;49.20;101273.24;1718500;81;21062;-50
2022/07/25 07:10:20;;;;;;;7.22;6.55;;;;;;;29.67;49.04;101277.48;1733351;81;21495;-54
2022/07/25 07:12:48;;;;;;;7.40;6.80;;;;;;;29.69;49.02;101275.98;1730247;82;21062;-53
2022/07/25 07:15:16;;;;;;;6.90;6.30;;;;;;;29.74;48.87;101277.76;1744689;81;21038;-58
2022/07/25 07:17:44;;;;;;;6.83;6.17;;;;;;;29.80;48.65;101279.86;1733205;81;21096;-50
2022/07/25 07:20:11;;;;;;;6.72;6.00;;;;;;;29.90;48.53;101277.18;1732768;81;21095;-48
2022/07/25 07:22:45;;;;;;;7.12;6.12;;;;;;;30.02;48.45;101278.70;1735238;81;21011;-50
2022/07/25 07:25:14;;;;;;;6.92;6.22;;;;;;;30.17;47.94;101283.44;1642440;86;21636;-49
2022/07/25 07:27:41;;;;;;;6.85;6.25;;;;;;;30.30;47.61;101275.09;1695741;83;21524;-50
2022/07/25 07:30:10;;;;;;;6.87;6.28;;;;;;;30.41;47.26;101285.66;1694342;83;21070;-48
2022/07/25 07:32:37;;;;;;;6.33;5.83;;;;;;;30.46;47.05;101286.91;1691727;83;21026;-51
2022/07/25 07:35:05;;;;;;;6.40;5.80;;;;;;;30.49;46.95;101289.30;1691721;83;21042;-49
2022/07/25 07:37:32;;;;;;;6.28;5.78;;;;;;;30.51;47.27;101289.14;1691574;83;21002;-48
2022/07/25 07:39:59;;;;;;;6.65;6.05;;;;;;;30.51;47.13;101292.69;1691818;83;21043;-50
2022/07/25 07:42:26;;;;;;;6.30;5.78;;;;;;;30.51;46.98;101291.83;1691437;84;21118;-50
2022/07/25 07:44:53;;;;;;;6.40;5.90;;;;;;;30.52;46.87;101288.98;1691992;83;21059;-50
2022/07/25 07:47:20;;;;;;;5.85;5.40;;;;;;;30.56;46.88;101288.70;1693753;84;21107;-55
2022/07/25 07:49:47;;;;;;;6.78;6.08;;;;;;;30.58;46.76;101286.72;1690602;84;21498;-51
2022/07/25 07:52:14;;;;;;;6.37;5.87;;;;;;;30.56;46.01;101290.91;1696522;83;21042;-48
2022/07/25 07:57:26;;;;;;;6.40;5.90;;;;;;;30.52;45.92;101296.23;1693990;84;21031;-50
2022/07/25 07:59:53;;;;;;;7.22;6.15;;;;;;;30.51;45.93;101295.38;1691716;83;21077;-52
2022/07/25 08:02:20;;;;;;;6.50;6.00;;;;;;;30.52;46.15;101296.23;1691906;83;21719;-50
2022/07/25 08:04:49;;;;;;;6.72;6.15;;;;;;;30.51;46.00;101299.41;1691925;84;21109;-52
2022/07/25 08:07:17;;;;;;;6.90;5.87;;;;;;;30.50;45.92;101295.01;1684590;83;21638;-54
2022/07/25 08:09:44;;;;;;;6.60;6.05;;;;;;;30.50;46.02;101293.66;1691108;83;21051;-50
2022/07/25 08:12:11;;;;;;;8.68;6.15;;;;;;;30.49;45.84;101289.30;1691357;84;21094;-51
2022/07/25 08:14:40;;;;;;;6.67;6.17;;;;;;;30.51;45.76;101296.72;1692134;83;21043;-51
2022/07/25 08:17:06;;;;;;;6.58;6.05;;;;;;;30.53;45.88;101298.75;1692409;83;21564;-51
2022/07/25 08:19:33;;;;;;;6.05;5.62;;;;;;;30.57;45.52;101293.07;1688907;83;21034;-53
2022/07/25 08:22:00;;;;;;;6.95;6.35;;;;;;;30.60;45.56;101292.30;1714166;82;21085;-51
2022/07/25 08:24:27;;;;;;;6.42;5.92;;;;;;;30.62;45.76;101293.48;1731076;81;21071;-51
2022/07/25 08:26:54;;;;;;;6.72;5.90;;;;;;;30.66;45.36;101301.59;1730784;81;21054;-51
2022/07/25 08:29:20;;;;;;;6.20;5.70;;;;;;;30.68;45.05;101292.88;1730471;81;21051;-50
2022/07/25 08:31:48;;;;;;;6.55;5.95;;;;;;;30.70;44.78;101292.23;1700414;84;21010;-49
2022/07/25 08:34:14;;;;;;;8.75;5.50;;;;;;;30.71;44.50;101292.60;1699172;84;21014;-48
2022/07/25 08:36:41;;;;;;;6.17;5.67;;;;;;;30.73;44.40;101286.58;1689720;83;21105;-48
2022/07/25 08:39:09;;;;;;;5.90;5.40;;;;;;;30.77;44.52;101294.16;1698157;84;21081;-48
2022/07/25 08:41:41;;;;;;;5.20;4.80;;;;;;;30.82;44.00;101287.00;1697870;84;21530;-48
2022/07/25 08:44:08;;;;;;;5.28;4.83;;;;;;;30.84;43.47;101289.04;1700030;83;21002;-54
2022/07/25 08:46:35;;;;;;;5.67;5.17;;;;;;;30.87;43.39;101294.98;1704047;83;21015;-52
2022/07/25 08:49:02;;;;;;;5.00;4.60;;;;;;;30.89;43.05;101288.13;1687930;84;21521;-54
2022/07/25 08:51:29;;;;;;;4.70;4.37;;;;;;;30.92;43.00;101295.88;1721727;81;21019;-52
2022/07/25 08:53:56;;;;;;;4.62;4.20;;;;;;;30.94;42.69;101288.02;1719847;81;21015;-51
2022/07/25 08:56:23;;;;;;;5.08;4.12;;;;;;;30.97;42.38;101293.11;1698827;84;21053;-52
2022/07/25 08:58:50;;;;;;;5.22;4.45;;;;;;;31.00;42.16;101290.59;1699183;83;21054;-52
2022/07/25 09:01:16;;;;;;;5.47;4.40;;;;;;;31.02;41.88;101284.56;1733421;82;20994;-50
2022/07/25 09:03:43;;;;;;;6.30;3.75;;;;;;;31.03;41.51;101277.72;1700480;84;21018;-51
2022/07/25 09:06:18;;;;;;;7.03;4.20;;;;;;;31.06;41.23;101279.23;1700701;84;21065;-53
2022/07/25 09:08:58;;;;;;;4.25;3.87;;;;;;;31.09;40.90;101285.17;1700227;84;21113;-50
2022/07/25 09:11:36;;;;;;;3.77;3.47;;;;;;;31.12;40.40;101278.62;1738128;81;20996;-47
2022/07/25 09:14:06;;;;;;;3.67;3.45;;;;;;;31.16;40.28;101282.72;1704133;84;21029;-51
2022/07/25 09:16:42;;;;;;;3.77;3.47;;;;;;;31.16;40.06;101278.16;1680806;85;21034;-49
2022/07/25 09:19:12;;;;;;;4.15;3.80;;;;;;;31.19;39.95;101273.84;1715411;81;21072;-52
2022/07/25 09:21:41;;;;;;;3.75;3.45;;;;;;;31.23;39.63;101275.72;1688592;84;21096;-51
2022/07/25 09:24:15;;;;;;;3.98;3.67;;;;;;;31.25;39.23;101276.41;1688392;84;21040;-54
2022/07/25 09:26:45;;;;;;;4.80;3.33;;;;;;;31.29;38.93;101275.09;1688331;84;21534;-54
2022/07/25 09:29:19;;;;;;;6.73;5.13;;;;;;;31.33;38.59;101266.58;1615150;87;21083;-53
2022/07/25 09:31:46;;;;;;;4.67;4.03;;;;;;;31.37;38.39;101265.75;1617276;86;21389;-50
2022/07/25 09:34:38;;;;;;;18.00;4.87;;;;;;;31.38;38.12;101268.80;1619958;86;21634;-51
2022/07/25 09:37:08;;;;;;;40.12;5.90;;;;;;;31.40;37.79;101265.98;1532912;92;21313;-54
2022/07/25 09:39:45;;;;;;;27.13;4.67;;;;;;;31.41;37.93;101268.51;1484768;94;21096;-56
2022/07/25 09:42:31;;;;;;;89.28;8.40;;;;;;;31.43;37.35;101265.69;1444697;98;21106;-51
2022/07/25 09:45:06;;;;;;;53.90;7.22;;;;;;;31.44;37.29;101270.05;1387441;102;21118;-53
2022/07/25 09:47:36;;;;;;;25.55;4.62;;;;;;;31.45;37.13;101263.16;1394347;102;21118;-51
2022/07/25 09:50:05;;;;;;;25.77;4.40;;;;;;;31.46;37.38;101259.49;1387813;102;21179;-52
2022/07/25 09:52:32;;;;;;;11.50;3.83;;;;;;;31.50;37.34;101262.21;1387853;102;21694;-49
2022/07/25 09:55:02;;;;;;;14.23;3.67;;;;;;;31.51;36.46;101261.20;1388061;102;21145;-52
2022/07/25 09:57:29;;;;;;;32.45;5.67;;;;;;;31.53;36.42;101261.88;1389720;102;21554;-52
2022/07/25 09:59:59;;;;;;;15.75;4.15;;;;;;;31.55;37.09;101262.57;1390902;102;21185;-48
2022/07/25 10:02:53;;;;;;;14.60;3.65;;;;;;;31.57;36.74;101257.06;1390940;102;21605;-54
2022/07/25 10:05:50;;;;;;;25.05;4.75;;;;;;;31.60;36.30;101253.55;1386297;102;21126;-52
2022/07/25 10:08:17;;;;;;;33.53;5.05;;;;;;;31.63;35.64;101254.59;1353410;105;21627;-50
2022/07/25 10:10:44;;;;;;;27.87;4.47;;;;;;;31.66;35.86;101254.75;1353329;105;21199;-52
2022/07/25 10:13:14;;;;;;;25.30;4.17;;;;;;;31.67;35.63;101253.28;1348226;105;21243;-52
2022/07/25 10:15:51;;;;;;;46.42;6.33;;;;;;;31.68;35.92;101252.26;1334023;106;21182;-51
2022/07/25 10:18:25;;;;;;;4.92;2.87;;;;;;;31.70;36.59;101248.91;1349468;104;21169;-53
2022/07/25 10:20:55;;;;;;;61.77;6.92;;;;;;;31.70;35.31;101249.41;1410798;100;21589;-54
2022/07/25 10:23:25;;;;;;;21.60;4.95;;;;;;;31.73;35.36;101253.99;1392125;102;21110;-50
2022/07/25 10:26:14;;;;;;;3.60;3.27;;;;;;;31.70;34.48;101243.53;1411241;99;21197;-49
2022/07/25 10:28:45;;;;;;;3.30;3.00;;;;;;;31.71;34.58;101242.55;1440634;99;21085;-55
2022/07/25 10:31:20;;;;;;;3.90;2.80;;;;;;;31.73;34.67;101247.27;1438481;99;21144;-49
2022/07/25 10:33:51;;;;;;;3.00;2.50;;;;;;;31.73;34.08;101243.72;1425966;98;21127;-51
2022/07/25 10:36:20;;;;;;;2.70;2.50;;;;;;;31.74;33.62;101239.52;1389261;103;21641;-49
2022/07/25 10:38:52;;;;;;;8.45;2.85;;;;;;;31.76;34.43;101244.23;1363286;105;21171;-52
2022/07/25 10:41:22;;;;;;;21.85;3.90;;;;;;;31.78;34.24;101244.11;1381795;101;21123;-51
2022/07/25 10:43:50;;;;;;;23.90;3.72;;;;;;;31.79;33.93;101239.91;1434688;99;21666;-51
2022/07/25 10:46:19;;;;;;;4.62;2.10;;;;;;;31.80;33.52;101242.10;1498770;94;21058;-49
2022/07/25 10:48:58;;;;;;;6.67;2.47;;;;;;;31.81;33.22;101234.36;1544165;92;21070;-50
2022/07/25 10:51:27;;;;;;;98.25;10.28;;;;;;;31.82;32.98;101238.22;1541450;93;21110;-50
2022/07/25 10:53:54;;;;;;;12.25;3.08;;;;;;;31.83;32.50;101229.16;1542536;93;21616;-51
2022/07/25 10:56:23;;;;;;;5.42;2.42;;;;;;;31.84;32.86;101225.45;1498831;96;21159;-56
2022/07/25 10:58:58;;;;;;;2.70;2.15;;;;;;;31.87;32.82;101229.68;1542471;93;21576;-50
2022/07/25 11:01:31;;;;;;;41.00;4.58;;;;;;;31.88;32.65;101221.44;1484334;96;21189;-49
2022/07/25 11:04:01;;;;;;;18.52;3.00;;;;;;;31.91;33.16;101227.86;1440415;99;21640;-51
2022/07/25 11:06:38;;;;;;;5.40;2.00;;;;;;;31.94;32.63;101224.87;1438359;98;21674;-51
2022/07/25 11:09:17;;;;;;;15.10;2.47;;;;;;;31.98;32.64;101224.08;1440566;100;21135;-51
2022/07/25 11:11:48;;;;;;;7.15;2.27;;;;;;;32.00;31.82;101226.95;1440629;99;21605;-49
2022/07/25 11:14:24;;;;;;;2.42;1.70;;;;;;;32.02;31.45;101220.05;1440904;99;21564;-50
2022/07/25 11:19:27;;;;;;;2.35;1.90;;;;;;;32.05;32.39;101212.49;1380366;104;21172;-49
2022/07/25 11:21:57;;;;;;;5.25;1.62;;;;;;;32.06;31.37;101210.16;1367945;104;21176;-52
2022/07/25 11:24:42;;;;;;;1.67;1.57;;;;;;;32.08;31.68;101212.19;1368883;105;21139;-53
2022/07/25 11:27:14;;;;;;;2.02;1.70;;;;;;;32.09;31.35;101216.55;1367860;105;21124;-50
2022/07/25 11:29:40;;;;;;;1.57;1.40;;;;;;;32.11;31.14;101205.61;1424922;99;21126;-50
2022/07/25 11:32:09;;;;;;;2.27;1.27;;;;;;;32.14;31.30;101201.76;1426955;99;21703;-55
2022/07/25 11:34:43;;;;;;;1.60;1.40;;;;;;;32.15;30.79;101200.77;1426991;99;21260;-50
2022/07/25 11:37:11;;;;;;;1.62;1.20;;;;;;;32.17;30.32;101201.45;1426623;100;21640;-51